Time;durP1;ratioP1;P1;durP2;ratioP2;P2;SDS_P1;SDS_P2;PMS_P1;PMS_P2;Temp;Humidity;BMP_temperature;BMP_pressure;BME280_temperature;BME280_humidity;BME280_pressure;Samples;Min_cycle;Max_cycle;Signal;HPM_P1;HPM_P2
2022/04/06 00:03:58;;;;;;;12.50;3.13;;;13.50;74.00;;;;;;5036043;28;20232;-96
2022/04/06 00:09:19;;;;;;;9.43;3.30;;;13.50;74.30;;;;;;5044405;28;20208;-96
2022/04/06 00:11:53;;;;;;;11.73;3.43;;;13.50;74.80;;;;;;5037576;28;20235;-95
2022/04/06 00:14:24;;;;;;;10.93;3.27;;;13.50;74.80;;;;;;5023107;28;20189;-95
2022/04/06 00:17:05;;;;;;;19.23;3.87;;;13.50;74.30;;;;;;5033843;28;20235;-95
2022/04/06 00:19:43;;;;;;;7.37;2.93;;;13.50;73.80;;;;;;5041899;28;20637;-95
2022/04/06 00:26:01;;;;;;;10.23;2.97;;;13.50;73.70;;;;;;4990677;28;20224;-95
2022/04/06 00:28:39;;;;;;;6.43;2.37;;;13.50;73.10;;;;;;5045737;28;20228;-95
2022/04/06 00:31:16;;;;;;;11.33;3.33;;;13.40;72.60;;;;;;5049910;28;20226;-96
2022/04/06 00:33:44;;;;;;;9.17;3.03;;;13.50;72.10;;;;;;5030264;28;20239;-96
2022/04/06 00:36:18;;;;;;;8.73;2.80;;;13.40;72.60;;;;;;5028777;28;20242;-96
2022/04/06 00:38:52;;;;;;;12.50;2.87;;;13.40;72.60;;;;;;5027659;28;20299;-96
2022/04/06 00:41:24;;;;;;;14.07;3.40;;;13.40;72.50;;;;;;5024400;28;20221;-96
2022/04/06 00:44:23;;;;;;;11.27;2.73;;;13.40;72.60;;;;;;5007156;28;20240;-95
2022/04/06 00:47:02;;;;;;;13.37;2.70;;;13.40;71.70;;;;;;5008745;28;20220;-96
2022/04/06 00:49:47;;;;;;;9.67;2.53;;;13.40;72.00;;;;;;5014764;28;20195;-96
2022/04/06 00:52:23;;;;;;;10.57;3.03;;;13.40;72.10;;;;;;5028826;28;20939;-96
2022/04/06 00:55:01;;;;;;;10.63;2.77;;;13.40;72.00;;;;;;5046754;28;20262;-96
2022/04/06 00:57:44;;;;;;;9.47;2.27;;;13.40;71.50;;;;;;5047154;28;20311;-96
2022/04/06 01:00:21;;;;;;;6.30;1.87;;;13.40;71.80;;;;;;5038116;28;20211;-96
2022/04/06 01:03:28;;;;;;;8.17;2.30;;;13.30;71.10;;;;;;5009320;28;20202;-96
2022/04/06 01:05:57;;;;;;;9.17;2.47;;;13.30;71.10;;;;;;5008864;28;20210;-96
2022/04/06 01:08:27;;;;;;;5.93;1.90;;;13.30;71.70;;;;;;5032673;28;20212;-96
2022/04/06 01:10:54;;;;;;;6.13;1.77;;;13.30;71.60;;;;;;5038449;28;20202;-96
2022/04/06 01:13:34;;;;;;;8.87;2.60;;;13.30;71.60;;;;;;5047394;28;20203;-95
2022/04/06 01:16:08;;;;;;;9.80;2.77;;;13.30;70.80;;;;;;5044055;28;20195;-95
2022/04/06 01:21:57;;;;;;;10.73;2.73;;;13.30;70.90;;;;;;5046218;28;20235;-96
2022/04/06 01:24:58;;;;;;;7.97;2.20;;;13.30;71.30;;;;;;5047436;28;20270;-96
2022/04/06 01:27:41;;;;;;;10.97;2.90;;;13.20;71.00;;;;;;5023250;28;20271;-96
2022/04/06 01:30:11;;;;;;;7.07;2.10;;;13.20;70.90;;;;;;5038049;28;20703;-95
2022/04/06 01:32:50;;;;;;;10.70;2.67;;;13.20;71.40;;;;;;5037461;28;20249;-95
2022/04/06 01:35:42;;;;;;;7.40;2.20;;;13.20;72.00;;;;;;5016035;28;20204;-96
2022/04/06 01:38:46;;;;;;;9.40;2.40;;;13.20;72.10;;;;;;5040790;28;20302;-96
2022/04/06 01:41:26;;;;;;;7.30;2.57;;;13.20;72.40;;;;;;5037675;28;20213;-95
2022/04/06 01:44:01;;;;;;;15.60;2.97;;;13.20;72.80;;;;;;5031728;28;20210;-96
2022/04/06 01:46:30;;;;;;;8.87;2.27;;;13.20;73.30;;;;;;5039134;28;20215;-95
2022/04/06 01:52:23;;;;;;;18.10;3.93;;;13.20;74.00;;;;;;5035358;28;20210;-95
2022/04/06 01:54:54;;;;;;;11.37;2.73;;;13.20;74.20;;;;;;5000114;28;20206;-96
2022/04/06 01:57:33;;;;;;;15.30;3.10;;;13.10;74.60;;;;;;5003614;28;20315;-96
2022/04/06 02:00:02;;;;;;;13.90;3.33;;;13.10;75.10;;;;;;5014429;28;20199;-96
2022/04/06 02:02:32;;;;;;;12.23;3.30;;;13.10;75.30;;;;;;5039782;28;20286;-96
2022/04/06 02:05:07;;;;;;;8.87;2.67;;;13.10;75.60;;;;;;5041249;28;20223;-95
2022/04/06 02:07:36;;;;;;;15.90;4.50;;;13.10;76.00;;;;;;5039200;28;20230;-96
2022/04/06 02:10:04;;;;;;;11.87;2.97;;;13.10;76.50;;;;;;5023804;28;20534;-96
2022/04/06 02:12:38;;;;;;;20.23;4.67;;;13.10;76.70;;;;;;5038087;28;20696;-96
2022/04/06 02:15:10;;;;;;;17.87;3.87;;;13.10;77.00;;;;;;5004082;28;20665;-95
2022/04/06 02:17:43;;;;;;;15.23;3.60;;;13.10;77.20;;;;;;5001007;28;20228;-95
2022/04/06 02:20:20;;;;;;;14.83;4.70;;;13.10;77.50;;;;;;5030683;28;20242;-94
2022/04/06 02:22:49;;;;;;;19.03;4.23;;;13.10;77.80;;;;;;5040597;28;20197;-95
2022/04/06 02:25:24;;;;;;;18.80;4.20;;;13.10;77.80;;;;;;5043130;28;20290;-96
2022/04/06 02:28:00;;;;;;;19.30;4.03;;;13.10;78.30;;;;;;5040168;28;20218;-96
2022/04/06 02:30:48;;;;;;;13.90;3.10;;;13.10;78.40;;;;;;5026976;28;20219;-96
2022/04/06 02:33:20;;;;;;;16.20;4.07;;;13.10;79.50;;;;;;5042195;28;20205;-96
2022/04/06 02:35:55;;;;;;;12.87;3.80;;;13.10;78.80;;;;;;5041640;28;20198;-95
2022/04/06 02:38:31;;;;;;;21.33;4.03;;;13.10;78.90;;;;;;5024922;28;20228;-96
2022/04/06 02:41:00;;;;;;;11.43;3.50;;;13.10;78.80;;;;;;5031551;28;20203;-94
2022/04/06 02:43:29;;;;;;;19.27;4.63;;;13.10;79.00;;;;;;5043953;28;20223;-96
2022/04/06 02:46:10;;;;;;;16.40;4.10;;;13.10;79.20;;;;;;5044442;28;20228;-96
2022/04/06 02:48:43;;;;;;;18.47;4.60;;;13.10;79.30;;;;;;5039119;28;20207;-96
2022/04/06 02:51:19;;;;;;;10.87;3.43;;;13.10;79.20;;;;;;5034131;28;20582;-96
2022/04/06 02:53:49;;;;;;;15.17;5.10;;;13.10;79.20;;;;;;5040868;28;20212;-96
2022/04/06 02:56:21;;;;;;;19.30;4.17;;;13.10;79.30;;;;;;5040378;28;20228;-96
2022/04/06 03:08:52;;;;;;;13.63;3.40;;;13.10;80.00;;;;;;4940768;29;20214;-96
2022/04/06 03:11:43;;;;;;;11.93;3.07;;;13.00;79.70;;;;;;4931656;29;20653;-96
2022/04/06 03:14:22;;;;;;;10.53;2.83;;;13.00;80.00;;;;;;4968526;29;20202;-96
2022/04/06 03:17:00;;;;;;;11.23;3.23;;;13.00;79.60;;;;;;4964853;29;20668;-96
2022/04/06 03:20:02;;;;;;;17.07;3.67;;;13.00;79.50;;;;;;5019019;28;20191;-96
2022/04/06 03:22:42;;;;;;;16.93;3.97;;;13.00;79.30;;;;;;5009945;28;20219;-96
2022/04/06 03:28:39;;;;;;;11.13;2.97;;;12.90;78.50;;;;;;5034965;22;20237;-96
2022/04/06 03:31:07;;;;;;;14.17;3.83;;;12.90;78.40;;;;;;5001160;28;20208;-94
2022/04/06 03:33:36;;;;;;;16.43;3.57;;;13.00;78.40;;;;;;5023143;28;20601;-96
2022/04/06 03:36:11;;;;;;;14.20;3.30;;;13.00;78.00;;;;;;5020306;28;20300;-96
2022/04/06 03:38:55;;;;;;;14.23;3.63;;;12.90;77.80;;;;;;5020400;28;20242;-95
2022/04/06 03:42:28;;;;;;;12.70;3.03;;;13.00;77.60;;;;;;5017005;28;20209;-96
2022/04/06 03:45:01;;;;;;;7.30;2.20;;;12.90;76.80;;;;;;5020289;28;20248;-95
2022/04/06 03:47:37;;;;;;;11.17;2.80;;;12.90;76.30;;;;;;5018959;28;20233;-96
2022/04/06 03:50:08;;;;;;;9.20;2.47;;;12.90;76.00;;;;;;5018664;28;20299;-96
2022/04/06 03:52:49;;;;;;;9.37;2.33;;;12.90;75.60;;;;;;5024333;28;20204;-96
2022/04/06 03:55:19;;;;;;;13.67;3.13;;;12.90;74.80;;;;;;5030062;28;20280;-94
2022/04/06 03:57:53;;;;;;;12.37;3.10;;;12.90;74.80;;;;;;5017819;28;20252;-96
2022/04/06 04:00:26;;;;;;;13.37;2.97;;;12.90;73.80;;;;;;5018246;28;20265;-96
2022/04/06 04:03:17;;;;;;;9.70;2.23;;;12.90;71.40;;;;;;5013675;28;20222;-96
2022/04/06 04:05:54;;;;;;;12.23;3.03;;;12.90;71.20;;;;;;5019851;28;20216;-96
2022/04/06 04:08:26;;;;;;;7.47;2.17;;;12.90;72.30;;;;;;5017171;28;20204;-96
2022/04/06 04:11:17;;;;;;;8.17;2.40;;;12.90;71.60;;;;;;5017336;28;20218;-96
2022/04/06 04:13:46;;;;;;;14.57;3.30;;;12.90;71.20;;;;;;5004140;28;20234;-96
2022/04/06 04:16:16;;;;;;;10.90;2.70;;;12.90;71.60;;;;;;5018047;28;20210;-96
2022/04/06 04:19:40;;;;;;;9.90;2.57;;;12.80;71.60;;;;;;5018242;28;20301;-96
2022/04/06 04:22:12;;;;;;;8.03;2.57;;;12.80;70.70;;;;;;4991983;28;20207;-96
2022/04/06 04:24:43;;;;;;;7.77;1.80;;;12.80;71.10;;;;;;5024750;28;20221;-95
2022/04/06 04:27:14;;;;;;;9.33;2.83;;;12.80;70.50;;;;;;5016471;28;20240;-96
2022/04/06 04:29:47;;;;;;;8.27;2.37;;;12.80;70.30;;;;;;5014560;28;20198;-95
2022/04/06 04:32:16;;;;;;;12.60;3.47;;;12.80;71.20;;;;;;5022726;28;20214;-96
2022/04/06 04:41:13;;;;;;;11.67;3.10;;;12.80;70.50;;;;;;5003220;28;20204;-95
2022/04/06 04:43:45;;;;;;;11.73;2.77;;;12.80;71.20;;;;;;5000557;28;20220;-96
2022/04/06 04:46:28;;;;;;;6.97;2.00;;;12.80;71.30;;;;;;5002948;28;20219;-96
2022/04/06 04:49:32;;;;;;;5.57;1.80;;;12.80;70.90;;;;;;4998247;28;20548;-96
2022/04/06 04:52:00;;;;;;;10.87;3.17;;;12.80;70.80;;;;;;5004407;28;20215;-95
2022/04/06 04:54:36;;;;;;;9.77;2.13;;;12.80;70.60;;;;;;5001127;28;20247;-96
2022/04/06 04:57:28;;;;;;;11.20;2.93;;;12.80;70.50;;;;;;5002328;28;20212;-96
2022/04/06 05:00:08;;;;;;;11.03;2.83;;;12.80;70.70;;;;;;4999834;28;20562;-95
2022/04/06 05:08:32;;;;;;;11.67;3.33;;;12.80;71.10;;;;;;5364381;22;20713;-96
2022/04/06 05:11:03;;;;;;;12.63;3.30;;;12.70;71.20;;;;;;5021030;28;20245;-96
2022/04/06 05:13:38;;;;;;;5.77;2.03;;;12.70;71.40;;;;;;5019464;28;20208;-96
2022/04/06 05:16:23;;;;;;;15.73;3.60;;;12.70;71.20;;;;;;5020970;28;20239;-96
2022/04/06 05:19:11;;;;;;;8.37;2.00;;;12.70;71.30;;;;;;5018072;28;20239;-96
2022/04/06 05:21:40;;;;;;;12.37;3.23;;;12.70;71.40;;;;;;5020668;28;20204;-96
2022/04/06 05:24:18;;;;;;;14.50;3.20;;;12.70;71.30;;;;;;5023637;28;20239;-96
2022/04/06 05:27:37;;;;;;;14.40;3.00;;;12.70;71.70;;;;;;5024244;28;20225;-96
2022/04/06 05:30:20;;;;;;;11.50;3.10;;;12.70;71.90;;;;;;5024005;28;20240;-96
2022/04/06 05:32:57;;;;;;;10.63;2.60;;;12.70;72.10;;;;;;5017134;28;20247;-96
2022/04/06 05:35:26;;;;;;;9.80;2.70;;;12.70;72.40;;;;;;5021655;28;20212;-96
2022/04/06 05:38:37;;;;;;;10.10;2.90;;;12.80;72.80;;;;;;5015010;28;20624;-96
2022/04/06 05:41:12;;;;;;;9.67;2.63;;;12.80;72.90;;;;;;5012486;28;20229;-96
2022/04/06 05:43:59;;;;;;;12.13;3.17;;;12.80;72.90;;;;;;5018485;28;20236;-96
2022/04/06 05:46:30;;;;;;;63.63;17.90;;;12.70;72.80;;;;;;5025809;22;20566;-96
2022/04/06 05:49:06;;;;;;;5.30;2.00;;;12.80;72.90;;;;;;5037383;28;20236;-96
2022/04/06 05:51:46;;;;;;;13.10;3.83;;;12.80;72.90;;;;;;5037625;28;20214;-96
2022/04/06 05:54:16;;;;;;;14.47;3.63;;;12.80;73.20;;;;;;5035151;28;20212;-96
2022/04/06 05:57:09;;;;;;;14.57;3.30;;;12.80;73.30;;;;;;5035407;28;20202;-96
2022/04/06 05:59:40;;;;;;;17.23;3.67;;;12.80;73.30;;;;;;5032770;28;20231;-96
2022/04/06 06:02:10;;;;;;;9.40;3.07;;;12.80;73.40;;;;;;5032444;28;20281;-96
2022/04/06 06:04:46;;;;;;;10.07;2.97;;;12.80;73.50;;;;;;5036138;28;20218;-96
2022/04/06 06:07:22;;;;;;;10.43;2.57;;;12.80;73.60;;;;;;5033877;28;20213;-93
2022/04/06 06:09:56;;;;;;;14.97;2.93;;;12.90;73.80;;;;;;5035595;28;20240;-96
2022/04/06 06:12:27;;;;;;;16.53;3.70;;;12.90;73.70;;;;;;5033711;28;20210;-96
2022/04/06 06:14:55;;;;;;;13.50;3.30;;;12.90;73.80;;;;;;5035339;28;20580;-95
2022/04/06 06:17:25;;;;;;;12.77;2.57;;;12.90;74.00;;;;;;5036696;28;20215;-96
2022/04/06 06:19:59;;;;;;;7.57;2.70;;;12.90;74.10;;;;;;5043359;28;20581;-96
2022/04/06 06:22:27;;;;;;;13.67;3.23;;;12.90;74.00;;;;;;5045221;28;20204;-96
2022/04/06 06:24:54;;;;;;;11.50;3.47;;;13.00;74.30;;;;;;5043370;28;20197;-96
2022/04/06 06:27:24;;;;;;;17.80;4.87;;;13.00;74.30;;;;;;5037462;28;20244;-96
2022/04/06 06:33:01;;;;;;;8.50;2.60;;;13.00;74.30;;;;;;5022504;28;20254;-95
2022/04/06 06:35:32;;;;;;;16.37;4.10;;;13.00;74.40;;;;;;5037467;28;20211;-95
2022/04/06 06:38:02;;;;;;;8.47;2.70;;;13.00;74.60;;;;;;5037055;28;20246;-95
2022/04/06 06:40:32;;;;;;;9.10;2.63;;;13.00;74.70;;;;;;5033142;28;20266;-95
2022/04/06 06:43:04;;;;;;;12.30;2.97;;;13.00;74.80;;;;;;5034773;28;20217;-95
2022/04/06 06:45:31;;;;;;;10.80;3.20;;;13.10;75.10;;;;;;5043912;28;20271;-93
2022/04/06 06:47:59;;;;;;;12.77;3.43;;;13.10;75.10;;;;;;5042216;28;20239;-94
2022/04/06 06:50:27;;;;;;;10.70;2.97;;;13.10;75.10;;;;;;5043511;28;20238;-96
2022/04/06 06:52:56;;;;;;;10.37;3.10;;;13.20;75.20;;;;;;5041623;28;20215;-94
2022/04/06 06:55:24;;;;;;;11.43;2.57;;;13.20;75.20;;;;;;5038037;28;20211;-95
2022/04/06 06:57:52;;;;;;;12.03;3.80;;;13.20;75.40;;;;;;5038242;28;20675;-94
2022/04/06 07:00:25;;;;;;;8.27;2.57;;;13.20;75.30;;;;;;5037777;28;20188;-94
2022/04/06 07:02:55;;;;;;;9.30;2.47;;;13.30;75.40;;;;;;5037317;28;20214;-94
2022/04/06 07:05:28;;;;;;;10.67;3.00;;;13.30;75.50;;;;;;5037547;28;20245;-93
2022/04/06 07:08:03;;;;;;;9.17;2.90;;;13.30;75.50;;;;;;5038371;28;20204;-95
2022/04/06 07:10:31;;;;;;;9.43;2.43;;;13.30;75.90;;;;;;5040385;28;20213;-96
2022/04/06 07:13:00;;;;;;;10.40;2.37;;;13.30;75.80;;;;;;5041674;28;20709;-95
2022/04/06 07:15:29;;;;;;;14.47;3.20;;;13.40;76.20;;;;;;5038998;28;20250;-96
2022/04/06 07:17:57;;;;;;;8.23;2.67;;;13.40;76.20;;;;;;5035810;28;20209;-95
2022/04/06 07:20:28;;;;;;;15.47;4.10;;;13.40;76.30;;;;;;5035555;28;20610;-94
2022/04/06 07:22:55;;;;;;;11.63;3.13;;;13.40;76.50;;;;;;5034794;28;20205;-95
2022/04/06 07:25:24;;;;;;;15.80;4.47;;;13.40;76.50;;;;;;5025848;28;20232;-95
2022/04/06 07:27:57;;;;;;;12.37;3.67;;;13.40;76.70;;;;;;5014790;28;20224;-95
2022/04/06 07:30:25;;;;;;;10.60;3.73;;;13.40;76.80;;;;;;5015053;28;20288;-95
2022/04/06 07:32:55;;;;;;;13.53;3.97;;;13.40;76.80;;;;;;5015944;28;20190;-96
2022/04/06 07:35:25;;;;;;;10.57;2.77;;;13.40;77.00;;;;;;5020093;28;20216;-94
2022/04/06 07:37:53;;;;;;;8.30;3.07;;;13.50;77.10;;;;;;5016500;28;20209;-94
2022/04/06 07:40:22;;;;;;;6.03;2.47;;;13.50;77.10;;;;;;5016671;28;20270;-96
2022/04/06 07:42:52;;;;;;;11.40;2.80;;;13.50;77.20;;;;;;5016007;28;20213;-96
2022/04/06 07:45:22;;;;;;;10.73;2.73;;;13.50;77.20;;;;;;5023989;28;20204;-96
2022/04/06 07:47:50;;;;;;;10.60;2.60;;;13.50;77.20;;;;;;5036184;28;20224;-96
2022/04/06 07:50:19;;;;;;;8.40;2.47;;;13.50;77.10;;;;;;5036227;28;20205;-95
2022/04/06 07:52:49;;;;;;;10.90;3.03;;;13.50;77.20;;;;;;5036777;28;20206;-95
2022/04/06 07:55:24;;;;;;;10.03;2.73;;;13.50;77.30;;;;;;5031714;28;20602;-96
2022/04/06 07:57:54;;;;;;;66.27;7.13;;;13.50;77.60;;;;;;5035398;28;20200;-95
2022/04/06 08:00:25;;;;;;;13.03;2.97;;;13.60;78.10;;;;;;5036292;28;20754;-95
2022/04/06 08:02:55;;;;;;;24.37;13.53;;;13.50;78.10;;;;;;5039436;28;20199;-96
2022/04/06 08:08:08;;;;;;;11.67;3.20;;;13.50;78.20;;;;;;5042491;28;20876;-95
2022/04/06 08:11:05;;;;;;;16.23;2.87;;;13.50;78.20;;;;;;5037382;28;20208;-95
2022/04/06 08:13:35;;;;;;;12.27;3.33;;;13.50;78.70;;;;;;5037870;28;20200;-95
2022/04/06 08:16:03;;;;;;;9.37;2.50;;;13.60;78.80;;;;;;5037347;28;20267;-94
2022/04/06 08:18:35;;;;;;;9.80;2.87;;;13.60;78.60;;;;;;5038000;28;20236;-95
2022/04/06 08:21:05;;;;;;;8.67;2.40;;;13.60;79.10;;;;;;5037273;28;20277;-96
2022/04/06 08:23:34;;;;;;;9.47;2.00;;;13.60;78.90;;;;;;5036679;28;20205;-95
2022/04/06 08:26:02;;;;;;;10.97;3.27;;;13.60;79.10;;;;;;5035740;28;20259;-95
2022/04/06 08:28:37;;;;;;;10.37;2.80;;;13.70;79.40;;;;;;5035906;28;20318;-95
2022/04/06 08:31:05;;;;;;;7.73;2.13;;;13.70;79.50;;;;;;5035677;28;20298;-96
2022/04/06 08:33:33;;;;;;;11.83;2.73;;;13.70;79.40;;;;;;5035642;28;20205;-96
2022/04/06 08:36:06;;;;;;;10.43;2.83;;;13.70;79.50;;;;;;5034765;28;20211;-95
2022/04/06 08:38:39;;;;;;;9.43;2.90;;;13.70;79.50;;;;;;5036461;28;20225;-95
2022/04/06 08:41:11;;;;;;;13.60;2.70;;;13.70;79.60;;;;;;5035704;28;20208;-95
2022/04/06 08:43:41;;;;;;;7.43;3.03;;;13.70;79.60;;;;;;5036035;28;20197;-95
2022/04/06 08:46:10;;;;;;;9.90;2.73;;;13.70;79.40;;;;;;5026394;28;20221;-94
2022/04/06 08:48:54;;;;;;;;;;;;;;;;;;;;;
2022/04/06 08:51:34;;;;;;;14.13;4.77;;;13.70;79.80;;;;;;5020695;28;20560;-93
2022/04/06 08:54:04;;;;;;;9.37;3.03;;;13.70;80.00;;;;;;5019808;28;20203;-95
2022/04/06 08:56:34;;;;;;;10.77;2.60;;;13.80;79.70;;;;;;5031525;28;20268;-96
2022/04/06 08:59:04;;;;;;;9.33;2.50;;;13.80;80.10;;;;;;5036862;28;20263;-96
2022/04/06 09:01:37;;;;;;;9.63;2.77;;;13.80;80.10;;;;;;5034686;28;20567;-96
2022/04/06 09:04:06;;;;;;;11.83;2.30;;;13.80;80.20;;;;;;5037094;28;20195;-96
2022/04/06 09:06:40;;;;;;;8.80;2.73;;;13.80;79.90;;;;;;5035856;28;20272;-95
2022/04/06 09:09:10;;;;;;;12.60;3.73;;;13.80;80.10;;;;;;5036633;28;20207;-96
2022/04/06 09:11:48;;;;;;;7.63;2.33;;;13.80;80.00;;;;;;5040197;28;20209;-96
2022/04/06 09:14:30;;;;;;;10.03;2.33;;;13.80;80.20;;;;;;5038933;28;20207;-96
2022/04/06 09:17:03;;;;;;;18.23;4.07;;;13.80;79.80;;;;;;5032939;28;20228;-95
2022/04/06 09:19:31;;;;;;;5.27;1.90;;;13.80;79.70;;;;;;5039308;28;20231;-95
2022/04/06 09:22:01;;;;;;;12.37;3.20;;;13.80;79.60;;;;;;5037399;28;20247;-96
2022/04/06 09:24:28;;;;;;;9.27;2.70;;;13.80;80.00;;;;;;5035284;28;20211;-94
2022/04/06 09:26:59;;;;;;;7.73;2.43;;;13.80;79.80;;;;;;5035615;28;20278;-94
2022/04/06 09:29:34;;;;;;;11.07;3.23;;;13.80;79.60;;;;;;5035893;28;20235;-94
2022/04/06 09:32:14;;;;;;;7.53;2.60;;;13.80;79.80;;;;;;5037078;28;21060;-95
2022/04/06 09:34:47;;;;;;;9.23;3.07;;;13.80;79.90;;;;;;5037000;28;20211;-95
2022/04/06 09:37:27;;;;;;;6.80;2.57;;;13.80;79.90;;;;;;5034146;28;20210;-96
2022/04/06 09:39:56;;;;;;;8.70;3.50;;;13.80;79.80;;;;;;5034269;28;20258;-93
2022/04/06 09:42:26;;;;;;;16.30;3.83;;;13.80;79.80;;;;;;5035841;28;20213;-95
2022/04/06 09:47:51;;;;;;;8.43;2.60;;;13.80;79.80;;;;;;5032573;28;20263;-94
2022/04/06 09:50:22;;;;;;;8.40;2.47;;;13.90;79.90;;;;;;5037461;28;20720;-96
2022/04/06 09:52:56;;;;;;;16.07;4.47;;;13.90;80.10;;;;;;5039611;28;20300;-96
2022/04/06 09:55:25;;;;;;;9.83;2.90;;;13.80;79.90;;;;;;5050928;28;20204;-95
2022/04/06 09:58:26;;;;;;;11.20;3.20;;;13.80;79.80;;;;;;5049145;28;20203;-93
2022/04/06 10:00:55;;;;;;;8.93;2.40;;;13.90;80.30;;;;;;5038133;28;20235;-94
2022/04/06 10:03:23;;;;;;;9.73;3.03;;;13.80;80.20;;;;;;5040258;28;20207;-94
2022/04/06 10:06:29;;;;;;;11.40;3.10;;;13.90;80.40;;;;;;5040093;28;20231;-96
2022/04/06 10:08:58;;;;;;;7.70;2.30;;;13.90;80.60;;;;;;5019244;28;20224;-94
2022/04/06 10:11:26;;;;;;;6.90;2.27;;;13.90;80.30;;;;;;5020197;28;20207;-95
2022/04/06 10:13:56;;;;;;;7.20;2.60;;;13.90;80.20;;;;;;5017961;28;20206;-95
2022/04/06 10:16:26;;;;;;;10.50;2.93;;;13.90;80.20;;;;;;5021977;28;20413;-95
2022/04/06 10:18:54;;;;;;;6.37;2.27;;;13.90;80.40;;;;;;5038472;28;20258;-94
2022/04/06 10:21:32;;;;;;;14.23;4.20;;;13.90;80.30;;;;;;5048462;28;20211;-92
2022/04/06 10:24:18;;;;;;;5.40;2.10;;;13.90;80.60;;;;;;5050927;28;20207;-96
2022/04/06 10:27:14;;;;;;;8.53;2.20;;;13.90;80.80;;;;;;5037232;28;20308;-95
2022/04/06 10:30:23;;;;;;;6.80;2.30;;;13.90;80.70;;;;;;5024237;28;20216;-93
2022/04/06 10:33:00;;;;;;;11.47;2.67;;;13.90;81.00;;;;;;5023745;28;20197;-94
2022/04/06 10:35:31;;;;;;;6.40;2.30;;;13.90;80.60;;;;;;5039871;28;20200;-93
2022/04/06 10:38:27;;;;;;;8.10;2.13;;;13.90;80.60;;;;;;5040827;28;20212;-96
2022/04/06 10:41:07;;;;;;;10.10;2.63;;;13.90;80.70;;;;;;5048402;28;20229;-94
2022/04/06 10:44:07;;;;;;;6.03;2.23;;;14.00;81.00;;;;;;5043348;28;20210;-94
2022/04/06 10:46:39;;;;;;;8.47;2.03;;;14.00;80.90;;;;;;5037774;28;20206;-96
2022/04/06 10:49:19;;;;;;;6.03;2.40;;;14.00;80.70;;;;;;5036696;28;20239;-94
2022/04/06 10:51:56;;;;;;;8.70;2.20;;;14.10;80.70;;;;;;5036749;28;20616;-95
2022/04/06 10:54:53;;;;;;;6.20;2.03;;;14.10;80.50;;;;;;5021699;28;20211;-93
2022/04/06 10:57:22;;;;;;;7.33;2.57;;;14.10;80.20;;;;;;5017798;28;20204;-92
2022/04/06 11:00:31;;;;;;;10.87;2.77;;;14.20;80.10;;;;;;5016734;28;20216;-93
2022/04/06 11:03:19;;;;;;;11.27;3.43;;;14.20;80.10;;;;;;5020235;28;20198;-95
2022/04/06 11:05:50;;;;;;;5.50;1.83;;;14.20;79.60;;;;;;5035635;28;20217;-95
2022/04/06 11:11:45;;;;;;;9.43;3.20;;;14.30;79.80;;;;;;5035920;28;20204;-96
2022/04/06 11:14:17;;;;;;;7.73;2.63;;;14.30;79.60;;;;;;5035611;28;20274;-95
2022/04/06 11:16:48;;;;;;;7.80;2.37;;;14.30;79.40;;;;;;5039788;28;20209;-96
2022/04/06 11:19:18;;;;;;;9.83;3.10;;;14.30;79.20;;;;;;5038022;28;20206;-95
2022/04/06 11:21:57;;;;;;;4.67;2.17;;;14.30;79.10;;;;;;5041878;28;20201;-95
2022/04/06 11:24:38;;;;;;;5.90;2.27;;;14.30;79.40;;;;;;5042567;28;20212;-93
2022/04/06 11:27:06;;;;;;;6.87;2.50;;;14.30;79.60;;;;;;5039965;28;20211;-96
2022/04/06 11:29:37;;;;;;;8.83;2.43;;;14.30;79.60;;;;;;5043583;28;20212;-96
2022/04/06 11:32:06;;;;;;;7.63;2.53;;;14.30;79.80;;;;;;5043072;28;20212;-94
2022/04/06 11:34:38;;;;;;;7.47;2.90;;;14.30;79.80;;;;;;5042890;28;20204;-96
2022/04/06 11:37:09;;;;;;;9.47;2.87;;;14.30;79.60;;;;;;5041011;28;20216;-96
2022/04/06 11:39:38;;;;;;;80.07;9.73;;;14.30;79.80;;;;;;5044007;28;20235;-95
2022/04/06 11:42:17;;;;;;;;;;;;;;;;;;;;;
2022/04/06 11:44:46;;;;;;;15.13;3.83;;;14.20;79.40;;;;;;5042426;28;20212;-96
2022/04/06 11:47:45;;;;;;;13.17;2.87;;;14.20;79.50;;;;;;5044622;28;20819;-96
2022/04/06 11:50:15;;;;;;;30.40;6.33;;;14.20;79.80;;;;;;5045754;28;20214;-96
2022/04/06 11:52:54;;;;;;;36.50;6.83;;;14.20;80.00;;;;;;5045646;28;20644;-94
2022/04/06 11:55:41;;;;;;;36.47;6.00;;;14.30;80.70;;;;;;5040301;28;20211;-95
2022/04/06 11:58:36;;;;;;;25.93;4.60;;;14.30;79.50;;;;;;5041025;28;20208;-96
2022/04/06 12:01:14;;;;;;;20.40;4.13;;;14.30;79.60;;;;;;5038325;28;20338;-94
2022/04/06 12:03:46;;;;;;;10.93;3.00;;;14.30;79.10;;;;;;5040916;28;20272;-96
2022/04/06 12:06:16;;;;;;;27.27;4.93;;;14.30;79.10;;;;;;5039559;28;20208;-93
2022/04/06 12:08:50;;;;;;;9.07;2.57;;;14.20;78.30;;;;;;5017685;28;20288;-96
2022/04/06 12:11:22;;;;;;;11.73;3.27;;;14.20;78.60;;;;;;5017365;28;20659;-93
2022/04/06 12:13:52;;;;;;;12.83;3.63;;;14.30;78.90;;;;;;5017848;28;20632;-94
2022/04/06 12:16:27;;;;;;;7.70;2.03;;;14.30;78.50;;;;;;5036303;28;20679;-95
2022/04/06 12:18:56;;;;;;;13.93;3.63;;;14.30;78.50;;;;;;5037144;28;20347;-95
2022/04/06 12:21:40;;;;;;;8.43;2.47;;;14.30;78.40;;;;;;5036237;28;20600;-93
2022/04/06 12:24:17;;;;;;;8.07;3.27;;;14.30;78.50;;;;;;5034859;28;20247;-94
2022/04/06 12:27:44;;;;;;;8.80;2.20;;;14.40;78.50;;;;;;5035991;28;20227;-94
2022/04/06 12:30:14;;;;;;;7.23;2.60;;;14.40;78.20;;;;;;5035901;28;20563;-92
2022/04/06 12:32:45;;;;;;;13.03;3.30;;;14.40;78.10;;;;;;5035730;28;20204;-93
2022/04/06 12:35:20;;;;;;;8.87;3.07;;;14.40;78.00;;;;;;5034360;28;20208;-95
2022/04/06 12:37:57;;;;;;;10.20;4.63;;;14.40;78.10;;;;;;5037479;28;20204;-94
2022/04/06 12:40:29;;;;;;;17.73;7.57;;;14.40;78.10;;;;;;5037742;28;20235;-95
2022/04/06 12:42:57;;;;;;;8.27;2.63;;;14.40;78.20;;;;;;5034751;28;20205;-93
2022/04/06 12:45:39;;;;;;;8.40;2.63;;;14.40;78.50;;;;;;5035237;28;20244;-96
2022/04/06 12:48:20;;;;;;;6.63;2.37;;;14.40;78.30;;;;;;5037060;28;20217;-95
2022/04/06 12:50:48;;;;;;;7.53;2.93;;;14.40;79.20;;;;;;5037226;28;20213;-95
2022/04/06 12:53:20;;;;;;;8.90;3.07;;;14.40;78.50;;;;;;5036566;28;20205;-96
2022/04/06 12:56:13;;;;;;;11.53;2.67;;;14.30;78.50;;;;;;5038375;28;20656;-93
2022/04/06 12:58:43;;;;;;;8.40;1.90;;;14.30;78.70;;;;;;5039772;28;20215;-94
2022/04/06 13:01:13;;;;;;;7.60;2.13;;;14.30;78.70;;;;;;5039197;28;20248;-96
2022/04/06 13:03:56;;;;;;;6.00;2.17;;;14.30;79.10;;;;;;5040137;28;20197;-95
2022/04/06 13:06:26;;;;;;;17.87;3.77;;;14.30;79.70;;;;;;5040362;28;20266;-96
2022/04/06 13:08:57;;;;;;;5.00;2.10;;;14.30;80.00;;;;;;5041079;28;20217;-95
2022/04/06 13:11:32;;;;;;;5.87;2.50;;;14.30;80.20;;;;;;5041486;28;20214;-96
2022/04/06 13:14:03;;;;;;;10.60;2.97;;;14.30;80.80;;;;;;5039599;28;20212;-96
2022/04/06 13:16:30;;;;;;;10.90;3.53;;;14.20;80.70;;;;;;5040718;28;20439;-94
2022/04/06 13:19:04;;;;;;;10.90;2.73;;;14.20;81.70;;;;;;5038626;28;20201;-93
2022/04/06 13:21:34;;;;;;;4.27;2.00;;;14.20;81.70;;;;;;5038599;28;20339;-94
2022/04/06 13:24:10;;;;;;;7.43;2.50;;;14.10;81.70;;;;;;5038961;28;20641;-95
2022/04/06 13:26:49;;;;;;;11.93;2.50;;;14.10;83.40;;;;;;5019479;28;20224;-95
2022/04/06 13:29:16;;;;;;;10.07;3.10;;;14.00;83.70;;;;;;5022023;28;20604;-94
2022/04/06 13:31:44;;;;;;;10.80;3.50;;;14.00;83.60;;;;;;5030652;28;20189;-96
2022/04/06 13:34:13;;;;;;;7.27;2.77;;;13.90;84.00;;;;;;5033401;28;20208;-96
2022/04/06 13:36:48;;;;;;;9.53;2.83;;;13.90;84.00;;;;;;5050547;28;20239;-96
2022/04/06 13:39:22;;;;;;;8.93;2.83;;;13.90;84.10;;;;;;5049120;28;20212;-96
2022/04/06 13:41:56;;;;;;;9.00;3.13;;;13.80;84.10;;;;;;5046850;28;20290;-96
2022/04/06 13:44:24;;;;;;;6.07;2.43;;;13.80;85.60;;;;;;5040797;28;20248;-95
2022/04/06 13:46:52;;;;;;;7.73;3.00;;;13.80;84.50;;;;;;5037498;28;20229;-96
2022/04/06 13:49:23;;;;;;;6.50;2.50;;;13.80;85.00;;;;;;5023404;28;20289;-96
2022/04/06 13:51:56;;;;;;;5.97;2.77;;;13.80;85.70;;;;;;5038861;28;20204;-96
2022/04/06 13:54:26;;;;;;;4.83;2.30;;;13.80;85.40;;;;;;5038309;28;20205;-96
2022/04/06 13:57:03;;;;;;;10.93;3.37;;;13.70;85.60;;;;;;5046120;28;20210;-95
2022/04/06 13:59:31;;;;;;;10.67;2.90;;;13.70;85.80;;;;;;5041223;28;20207;-95
2022/04/06 14:02:00;;;;;;;9.70;2.90;;;13.70;85.60;;;;;;5040962;28;20220;-96
2022/04/06 14:04:28;;;;;;;11.07;3.60;;;13.70;86.30;;;;;;5045156;28;20227;-94
2022/04/06 14:07:03;;;;;;;5.50;2.60;;;13.70;86.30;;;;;;5042941;28;20208;-95
2022/04/06 14:09:34;;;;;;;11.97;3.60;;;13.70;86.70;;;;;;5037257;28;20194;-95
2022/04/06 14:12:04;;;;;;;8.90;3.17;;;13.70;87.20;;;;;;5039339;28;20243;-96
2022/04/06 14:14:36;;;;;;;10.77;3.37;;;13.70;87.10;;;;;;5037265;28;20276;-95
2022/04/06 14:17:08;;;;;;;10.20;3.37;;;13.70;87.50;;;;;;5036097;28;20208;-96
2022/04/06 14:19:36;;;;;;;9.53;2.67;;;13.70;88.00;;;;;;5036814;28;20204;-96